Time;durP1;ratioP1;P1;durP2;ratioP2;P2;SDS_P1;SDS_P2;PMS_P1;PMS_P2;Temp;Humidity;BMP_temperature;BMP_pressure;BME280_temperature;BME280_humidity;BME280_pressure;Samples;Min_cycle;Max_cycle;Signal;HPM_P1;HPM_P2
2022/11/27 00:00:21;;;;;;;12.73;6.00;;;;;;;9.83;100.00;102018.03;4967281;28;20097;-67
2022/11/27 00:02:47;;;;;;;15.18;6.50;;;;;;;9.79;100.00;102006.31;4967700;28;20035;-67
2022/11/27 00:05:13;;;;;;;10.80;4.68;;;;;;;9.82;100.00;102000.31;4971050;28;20073;-67
2022/11/27 00:07:38;;;;;;;10.50;5.28;;;;;;;9.81;100.00;102000.63;4964759;28;20031;-67
2022/11/27 00:10:05;;;;;;;8.15;4.18;;;;;;;9.85;100.00;102002.34;4963479;28;20026;-66
2022/11/27 00:12:30;;;;;;;16.52;6.15;;;;;;;9.80;100.00;101999.84;4963651;28;20057;-66
2022/11/27 00:14:56;;;;;;;9.20;4.55;;;;;;;9.76;100.00;102001.56;4981859;23;20042;-68
2022/11/27 00:17:21;;;;;;;13.40;5.32;;;;;;;9.64;100.00;102004.09;4985933;28;20046;-68
2022/11/27 00:19:47;;;;;;;15.38;5.13;;;;;;;9.65;100.00;102002.19;4980192;28;20035;-68
2022/11/27 00:22:12;;;;;;;9.93;5.03;;;;;;;9.49;100.00;101999.16;4986969;28;20039;-68
2022/11/27 00:24:37;;;;;;;16.02;5.45;;;;;;;9.56;100.00;102004.84;4986011;28;20048;-68
2022/11/27 00:27:03;;;;;;;10.07;4.20;;;;;;;9.44;100.00;101999.31;4988426;28;20034;-68
2022/11/27 00:29:29;;;;;;;12.75;5.95;;;;;;;9.55;100.00;101997.91;4980443;28;20455;-68
2022/11/27 00:31:55;;;;;;;9.80;4.85;;;;;;;9.49;100.00;102001.06;5001309;28;20061;-68
2022/11/27 00:34:21;;;;;;;11.52;4.93;;;;;;;9.52;100.00;101997.75;4980318;28;20070;-68
2022/11/27 00:36:46;;;;;;;11.88;5.40;;;;;;;9.47;100.00;102001.38;4984227;28;20039;-68
2022/11/27 00:39:12;;;;;;;13.48;4.95;;;;;;;9.50;100.00;101994.59;4987497;28;20065;-68
2022/11/27 00:41:37;;;;;;;12.48;4.93;;;;;;;9.38;100.00;102002.47;4988785;28;20558;-68
2022/11/27 00:44:04;;;;;;;12.10;5.63;;;;;;;9.31;100.00;102002.13;4989806;28;20049;-68
2022/11/27 00:46:31;;;;;;;14.70;5.43;;;;;;;9.28;100.00;102008.13;4987553;28;20023;-68
2022/11/27 00:48:58;;;;;;;12.38;5.07;;;;;;;9.27;100.00;102009.25;5006288;28;20671;-68
2022/11/27 00:51:25;;;;;;;8.43;4.50;;;;;;;9.26;100.00;102010.31;4990807;28;20034;-68
2022/11/27 00:53:51;;;;;;;11.10;4.97;;;;;;;9.15;100.00;102012.53;5002568;28;20038;-68
2022/11/27 00:56:24;;;;;;;13.05;4.22;;;;;;;9.06;100.00;102012.47;5006954;28;20045;-68
2022/11/27 00:58:51;;;;;;;10.85;4.03;;;;;;;8.96;100.00;102020.81;4991298;28;20084;-68
2022/11/27 01:01:26;;;;;;;11.90;5.43;;;;;;;9.27;100.00;102017.31;5000471;28;20092;-68
2022/11/27 01:03:52;;;;;;;9.15;4.72;;;;;;;9.09;100.00;102025.31;4993310;28;20036;-68
2022/11/27 01:06:19;;;;;;;8.90;4.18;;;;;;;8.87;100.00;102024.56;4993701;28;20538;-68
2022/11/27 01:08:44;;;;;;;6.82;4.00;;;;;;;9.25;100.00;102025.69;4991557;28;20099;-68
2022/11/27 01:11:19;;;;;;;7.90;4.35;;;;;;;9.12;100.00;102023.09;4983169;28;20050;-68
2022/11/27 01:13:45;;;;;;;11.55;4.60;;;;;;;9.02;100.00;102024.94;4983572;28;20077;-68
2022/11/27 01:16:13;;;;;;;10.27;3.63;;;;;;;9.20;100.00;102017.75;5004519;28;20426;-68
2022/11/27 01:18:41;;;;;;;7.13;4.22;;;;;;;9.31;100.00;102023.63;4987978;28;20062;-68
2022/11/27 01:21:07;;;;;;;9.07;4.25;;;;;;;9.37;100.00;102011.66;4991833;28;20034;-68
2022/11/27 01:23:36;;;;;;;7.75;4.18;;;;;;;9.38;100.00;102018.59;4998358;28;20045;-68
2022/11/27 01:26:04;;;;;;;13.23;4.43;;;;;;;9.30;100.00;102013.97;4988825;28;20030;-68
2022/11/27 01:28:30;;;;;;;9.90;4.75;;;;;;;9.28;100.00;102013.50;4971198;28;20035;-68
2022/11/27 01:30:56;;;;;;;8.75;4.15;;;;;;;9.36;100.00;102001.97;4986538;28;20034;-68
2022/11/27 01:33:22;;;;;;;12.30;5.05;;;;;;;9.12;100.00;101999.69;4990652;28;20080;-68
2022/11/27 01:35:58;;;;;;;8.07;3.92;;;;;;;9.24;100.00;101996.41;5002004;28;20023;-68
2022/11/27 01:38:44;;;;;;;9.15;4.13;;;;;;;9.19;100.00;101993.88;4984908;28;20522;-68
2022/11/27 01:41:27;;;;;;;10.65;4.03;;;;;;;9.31;100.00;101994.06;4968554;28;20058;-68
2022/11/27 01:43:54;;;;;;;9.50;3.78;;;;;;;9.08;100.00;101991.47;4967276;28;20122;-68
2022/11/27 01:46:54;;;;;;;9.93;4.00;;;;;;;9.14;100.00;101983.28;4965167;28;20039;-68
2022/11/27 01:49:37;;;;;;;9.40;3.90;;;;;;;8.79;100.00;101977.75;4946409;28;20043;-68
2022/11/27 01:52:06;;;;;;;10.35;3.92;;;;;;;8.91;100.00;101977.97;4965892;28;20491;-68
2022/11/27 01:54:57;;;;;;;10.80;5.07;;;;;;;8.92;100.00;101968.03;4967021;28;20030;-68
2022/11/27 01:57:35;;;;;;;9.07;4.32;;;;;;;8.96;100.00;101977.06;4949188;28;20055;-68
2022/11/27 02:00:00;;;;;;;10.63;3.95;;;;;;;9.04;100.00;101973.59;4968367;28;20075;-68
2022/11/27 02:02:26;;;;;;;8.68;3.80;;;;;;;8.93;100.00;101975.78;4961794;28;20633;-68
2022/11/27 02:04:53;;;;;;;7.13;3.70;;;;;;;8.81;100.00;101970.19;4953903;28;20101;-68
2022/11/27 02:07:19;;;;;;;9.05;4.38;;;;;;;8.80;100.00;101965.13;4958303;28;20402;-68
2022/11/27 02:09:44;;;;;;;10.98;4.90;;;;;;;8.92;100.00;101966.13;4949646;28;20031;-68
2022/11/27 02:12:23;;;;;;;11.52;3.97;;;;;;;8.99;100.00;101960.31;4950599;28;20444;-68
2022/11/27 02:15:19;;;;;;;13.90;4.20;;;;;;;8.77;100.00;101957.69;4963815;28;20086;-68
2022/11/27 02:18:00;;;;;;;5.25;3.45;;;;;;;8.65;100.00;101957.50;4973052;28;20487;-68
2022/11/27 02:20:37;;;;;;;14.23;3.25;;;;;;;8.74;100.00;101956.44;5007194;28;20482;-68
2022/11/27 02:23:28;;;;;;;8.50;3.97;;;;;;;8.72;100.00;101964.00;4990397;28;20022;-68
2022/11/27 02:26:21;;;;;;;11.27;3.78;;;;;;;8.91;99.92;101964.53;4987988;28;20037;-68
2022/11/27 02:28:55;;;;;;;9.07;4.05;;;;;;;8.57;100.00;101961.72;4978404;28;20038;-68
2022/11/27 02:31:48;;;;;;;5.45;2.80;;;;;;;8.50;100.00;101955.97;4991274;28;20045;-68
2022/11/27 02:34:44;;;;;;;7.28;2.92;;;;;;;8.50;100.00;101955.19;4982954;28;20414;-68
2022/11/27 02:37:09;;;;;;;5.93;2.95;;;;;;;8.68;100.00;101959.53;4989148;28;20497;-68
2022/11/27 02:40:06;;;;;;;8.60;3.55;;;;;;;8.61;100.00;101956.53;5003725;28;20114;-68
2022/11/27 02:43:16;;;;;;;9.90;3.25;;;;;;;8.54;100.00;101950.78;5001594;28;20105;-68
2022/11/27 02:45:46;;;;;;;8.52;3.38;;;;;;;8.47;100.00;101955.81;5003029;28;20041;-68
2022/11/27 02:48:14;;;;;;;7.85;3.67;;;;;;;8.14;100.00;101948.03;4988719;28;20040;-68
2022/11/27 02:50:43;;;;;;;12.43;3.65;;;;;;;8.27;100.00;101951.75;5006003;28;20042;-68
2022/11/27 02:53:16;;;;;;;7.07;4.05;;;;;;;8.32;100.00;101946.28;4985584;28;20022;-67
2022/11/27 02:55:43;;;;;;;5.53;3.50;;;;;;;8.33;100.00;101947.84;4988938;28;20053;-66
2022/11/27 02:58:14;;;;;;;6.47;3.58;;;;;;;8.13;100.00;101956.34;4990378;28;20089;-66
2022/11/27 03:00:44;;;;;;;10.55;3.25;;;;;;;8.27;100.00;101954.44;4990020;28;20038;-67
2022/11/27 03:03:13;;;;;;;11.05;3.63;;;;;;;8.23;100.00;101956.13;5006105;28;20527;-66
2022/11/27 03:05:42;;;;;;;5.93;3.33;;;;;;;8.25;100.00;101958.50;4990231;28;20022;-66
2022/11/27 03:08:32;;;;;;;8.43;4.05;;;;;;;8.21;100.00;101958.31;4987278;28;20034;-66
2022/11/27 03:11:00;;;;;;;13.73;3.65;;;;;;;8.14;100.00;101957.97;4983569;28;20035;-67
2022/11/27 03:13:28;;;;;;;8.85;3.75;;;;;;;8.16;100.00;101955.75;4986062;28;20490;-66
2022/11/27 03:16:07;;;;;;;8.38;4.10;;;;;;;8.02;100.00;101949.66;4989857;28;20030;-66
2022/11/27 03:18:41;;;;;;;9.15;3.95;;;;;;;8.03;100.00;101944.00;4985196;28;20085;-66
2022/11/27 03:21:19;;;;;;;8.20;4.13;;;;;;;7.99;100.00;101951.06;4989510;28;20121;-67
2022/11/27 03:23:45;;;;;;;11.95;4.38;;;;;;;7.79;100.00;101956.13;4983612;28;20034;-66
2022/11/27 03:26:10;;;;;;;8.10;4.10;;;;;;;7.76;100.00;101954.81;4987492;28;20458;-67
2022/11/27 03:28:36;;;;;;;7.75;3.67;;;;;;;7.73;100.00;101952.75;4984630;28;20109;-67
2022/11/27 03:31:01;;;;;;;7.78;4.38;;;;;;;7.85;100.00;101952.22;4987627;28;20038;-66
2022/11/27 03:33:27;;;;;;;8.23;4.03;;;;;;;7.85;100.00;101955.72;4987528;28;20069;-66
2022/11/27 03:35:52;;;;;;;5.00;3.25;;;;;;;7.90;100.00;101958.25;4987200;28;20031;-66
2022/11/27 03:38:18;;;;;;;11.43;4.55;;;;;;;7.80;100.00;101949.66;5001062;28;20570;-66
2022/11/27 03:41:08;;;;;;;11.95;4.82;;;;;;;7.78;100.00;101946.50;5005635;28;20118;-66
2022/11/27 03:43:41;;;;;;;8.68;3.25;;;;;;;7.75;100.00;101944.41;4987416;28;20042;-67
2022/11/27 03:46:21;;;;;;;6.03;2.95;;;;;;;7.45;100.00;101950.47;4990389;28;20022;-67
2022/11/27 03:49:00;;;;;;;4.73;3.37;;;;;;;7.54;100.00;101951.31;5002155;28;20030;-66
2022/11/27 03:51:47;;;;;;;7.45;3.08;;;;;;;7.56;100.00;101957.19;4983325;28;20030;-66
2022/11/27 03:54:43;;;;;;;5.32;3.13;;;;;;;7.52;100.00;101961.56;4990217;28;20042;-67
2022/11/27 03:57:22;;;;;;;8.82;3.72;;;;;;;7.58;100.00;101955.00;5005426;28;20446;-66
2022/11/27 03:59:52;;;;;;;9.25;4.38;;;;;;;7.55;100.00;101948.34;4989162;28;20042;-66
2022/11/27 04:02:37;;;;;;;8.47;3.63;;;;;;;7.56;100.00;101944.56;4986948;28;20050;-66
2022/11/27 04:05:03;;;;;;;6.38;3.20;;;;;;;7.57;100.00;101942.69;4983232;28;20031;-66
2022/11/27 04:07:28;;;;;;;8.18;3.38;;;;;;;7.72;100.00;101939.66;4986498;28;20491;-66
2022/11/27 04:09:53;;;;;;;9.75;4.00;;;;;;;7.72;100.00;101945.81;4978506;28;20035;-67
2022/11/27 04:12:19;;;;;;;7.85;4.10;;;;;;;7.51;100.00;101949.25;4989842;28;20042;-67
2022/11/27 04:14:44;;;;;;;7.78;4.10;;;;;;;7.61;100.00;101938.28;4976470;28;20046;-66
2022/11/27 04:17:11;;;;;;;9.05;3.15;;;;;;;7.61;100.00;101938.28;4993432;28;20076;-67
2022/11/27 04:19:36;;;;;;;5.55;3.45;;;;;;;7.23;100.00;101938.59;4992790;28;20117;-66
2022/11/27 04:22:02;;;;;;;6.45;3.42;;;;;;;7.30;100.00;101936.28;4992891;28;20554;-66
2022/11/27 04:24:27;;;;;;;15.43;5.60;;;;;;;7.16;100.00;101932.84;4993027;28;20035;-66
2022/11/27 04:26:53;;;;;;;6.90;3.38;;;;;;;7.22;100.00;101920.94;4993625;28;20494;-67
2022/11/27 04:29:18;;;;;;;6.75;3.25;;;;;;;7.22;100.00;101917.44;4989775;28;20045;-66
2022/11/27 04:31:43;;;;;;;5.65;3.42;;;;;;;7.16;100.00;101922.13;4992873;28;20393;-67
2022/11/27 04:34:12;;;;;;;7.03;4.18;;;;;;;7.12;100.00;101928.41;4991019;28;20069;-66
2022/11/27 04:36:37;;;;;;;10.15;5.18;;;;;;;7.15;100.00;101928.59;4993309;28;20058;-66
2022/11/27 04:39:03;;;;;;;13.18;5.05;;;;;;;7.35;100.00;101929.25;5004637;28;20065;-67
2022/11/27 04:41:28;;;;;;;10.27;5.00;;;;;;;7.14;100.00;101924.31;4983969;28;20026;-66
2022/11/27 04:43:54;;;;;;;9.43;5.05;;;;;;;7.14;100.00;101921.63;4992860;28;20034;-66
2022/11/27 04:46:20;;;;;;;12.88;5.88;;;;;;;7.10;100.00;101920.63;4993564;28;20035;-66
2022/11/27 04:48:45;;;;;;;7.03;4.15;;;;;;;7.21;100.00;101914.00;4991485;28;20030;-66
2022/11/27 04:51:11;;;;;;;12.02;4.95;;;;;;;7.28;100.00;101922.41;4993069;28;20092;-66
2022/11/27 04:53:36;;;;;;;11.02;3.70;;;;;;;7.43;100.00;101915.94;4994051;28;20033;-67
2022/11/27 04:56:02;;;;;;;9.15;3.47;;;;;;;7.39;99.38;101909.59;5008728;28;20042;-66
2022/11/27 04:58:27;;;;;;;13.48;5.63;;;;;;;7.15;100.00;101907.16;5004616;28;20038;-66
2022/11/27 05:00:53;;;;;;;9.85;4.22;;;;;;;7.23;100.00;101901.09;4988735;28;20122;-66
2022/11/27 05:03:18;;;;;;;7.93;3.80;;;;;;;7.29;100.00;101893.75;4991279;28;20070;-66
2022/11/27 05:05:44;;;;;;;9.50;4.25;;;;;;;7.15;100.00;101901.81;4991936;28;20030;-67
2022/11/27 05:08:09;;;;;;;7.70;5.18;;;;;;;7.03;100.00;101882.78;4991984;28;20030;-67
2022/11/27 05:10:34;;;;;;;10.30;4.57;;;;;;;6.84;100.00;101879.44;4986272;28;20511;-67
2022/11/27 05:13:00;;;;;;;9.88;4.93;;;;;;;6.85;100.00;101870.28;4991313;28;20499;-66
2022/11/27 05:15:25;;;;;;;6.80;3.75;;;;;;;6.97;100.00;101870.59;4992843;28;20034;-66
2022/11/27 05:17:51;;;;;;;20.65;5.70;;;;;;;6.78;100.00;101869.91;4990496;28;20092;-67
2022/11/27 05:20:16;;;;;;;7.57;3.67;;;;;;;7.03;100.00;101871.25;4991617;28;20092;-66
2022/11/27 05:22:43;;;;;;;8.90;4.15;;;;;;;6.96;100.00;101860.97;4992171;28;20506;-66
2022/11/27 05:25:08;;;;;;;14.40;4.43;;;;;;;6.83;100.00;101859.09;5007677;28;20042;-66
2022/11/27 05:27:34;;;;;;;9.90;4.85;;;;;;;6.95;100.00;101864.72;4991019;28;20032;-66
2022/11/27 05:29:59;;;;;;;6.78;3.92;;;;;;;6.89;100.00;101849.88;4989434;28;20153;-66
2022/11/27 05:32:24;;;;;;;10.50;4.55;;;;;;;6.95;99.50;101845.22;4991668;28;20881;-66
2022/11/27 05:34:50;;;;;;;8.52;3.42;;;;;;;6.77;99.78;101854.97;4992368;28;20056;-66
2022/11/27 05:37:15;;;;;;;8.68;4.32;;;;;;;6.53;100.00;101854.38;4989063;28;20053;-66
2022/11/27 05:39:44;;;;;;;9.07;4.30;;;;;;;6.54;100.00;101844.47;5001019;28;20042;-67
2022/11/27 05:42:09;;;;;;;6.72;3.60;;;;;;;6.59;100.00;101839.78;4982370;28;20038;-66
2022/11/27 05:44:34;;;;;;;10.30;4.10;;;;;;;6.59;100.00;101850.50;4989049;28;20045;-66
2022/11/27 05:47:00;;;;;;;6.75;3.58;;;;;;;6.42;100.00;101847.63;4992159;28;20034;-67
2022/11/27 05:49:25;;;;;;;12.52;4.63;;;;;;;6.66;100.00;101842.09;4992369;28;20034;-66
2022/11/27 05:51:51;;;;;;;10.45;4.95;;;;;;;6.62;100.00;101841.88;4994960;28;20062;-67
2022/11/27 05:54:17;;;;;;;11.40;5.28;;;;;;;6.65;100.00;101835.13;4992608;28;20030;-67
2022/11/27 05:56:42;;;;;;;10.18;4.15;;;;;;;6.61;100.00;101837.63;5007590;28;20050;-67
2022/11/27 05:59:09;;;;;;;7.35;3.97;;;;;;;6.57;100.00;101836.63;5002341;28;20061;-67
2022/11/27 06:01:35;;;;;;;8.85;3.88;;;;;;;6.54;100.00;101841.78;4989325;28;20073;-66
2022/11/27 06:04:00;;;;;;;11.93;5.72;;;;;;;6.55;100.00;101829.97;4989396;28;20102;-67
2022/11/27 06:06:25;;;;;;;9.95;4.97;;;;;;;6.80;100.00;101838.28;4990905;28;20034;-67
2022/11/27 06:08:51;;;;;;;7.35;4.07;;;;;;;6.87;99.50;101846.69;4987776;28;20030;-66
2022/11/27 06:11:19;;;;;;;12.52;4.45;;;;;;;6.82;99.40;101840.66;4985503;28;20475;-66
2022/11/27 06:13:47;;;;;;;7.38;3.50;;;;;;;6.75;99.17;101843.75;4986886;28;20030;-67
2022/11/27 06:16:18;;;;;;;6.47;3.47;;;;;;;6.67;100.00;101836.44;4995698;22;20077;-68
2022/11/27 06:18:44;;;;;;;11.70;4.72;;;;;;;6.59;99.80;101852.38;4989980;28;20126;-67
2022/11/27 06:21:12;;;;;;;9.18;4.38;;;;;;;6.66;99.84;101836.72;4991682;28;20088;-67
2022/11/27 06:23:38;;;;;;;7.95;3.10;;;;;;;6.65;99.65;101841.28;4990149;28;20109;-67
2022/11/27 06:26:17;;;;;;;9.02;4.07;;;;;;;6.80;99.00;101835.63;4990906;28;20402;-67
2022/11/27 06:28:44;;;;;;;8.93;4.93;;;;;;;6.85;99.11;101840.06;4985273;28;20046;-68
2022/11/27 06:31:12;;;;;;;7.65;3.38;;;;;;;6.77;99.33;101843.44;4989725;28;20030;-67
2022/11/27 06:33:37;;;;;;;7.18;4.65;;;;;;;6.90;97.95;101843.44;4990488;28;20037;-68
2022/11/27 06:36:04;;;;;;;6.57;3.97;;;;;;;6.75;98.54;101835.72;4989221;28;20394;-67
2022/11/27 06:38:32;;;;;;;8.32;3.65;;;;;;;6.82;98.21;101830.75;4989035;28;20395;-67
2022/11/27 06:41:12;;;;;;;6.38;3.53;;;;;;;6.74;97.44;101834.13;4987968;28;20117;-67
2022/11/27 06:43:38;;;;;;;7.40;3.67;;;;;;;6.57;97.61;101830.47;4989773;28;20411;-67
2022/11/27 06:46:05;;;;;;;10.07;5.80;;;;;;;6.46;98.48;101816.53;4990240;28;20041;-67
2022/11/27 06:48:32;;;;;;;8.50;4.43;;;;;;;6.46;99.78;101810.38;4987492;28;20125;-67
2022/11/27 06:51:01;;;;;;;6.65;3.33;;;;;;;6.46;99.74;101813.03;4988884;28;20118;-68
2022/11/27 06:53:28;;;;;;;11.90;4.47;;;;;;;6.41;100.00;101807.81;4994333;28;20080;-67
2022/11/27 06:55:54;;;;;;;8.65;4.57;;;;;;;6.17;100.00;101816.81;5005042;28;20026;-68
2022/11/27 06:58:20;;;;;;;12.60;4.15;;;;;;;6.36;100.00;101812.16;4975866;28;20041;-67
2022/11/27 07:00:45;;;;;;;9.93;4.45;;;;;;;6.22;100.00;101814.03;4997823;28;20062;-67
2022/11/27 07:03:10;;;;;;;7.97;4.13;;;;;;;6.22;100.00;101807.88;4990025;28;20038;-67
2022/11/27 07:05:36;;;;;;;11.50;4.53;;;;;;;6.29;100.00;101798.38;4990750;28;20022;-67
2022/11/27 07:08:02;;;;;;;6.28;3.80;;;;;;;6.49;98.87;101799.88;4988764;28;20517;-67
2022/11/27 07:10:27;;;;;;;8.13;3.88;;;;;;;6.41;100.00;101802.47;4986444;28;20560;-68
2022/11/27 07:12:53;;;;;;;6.65;3.20;;;;;;;6.51;99.38;101805.72;4989433;28;20343;-67
2022/11/27 07:15:18;;;;;;;10.32;4.50;;;;;;;6.48;98.56;101800.97;4989019;28;20030;-68
2022/11/27 07:17:44;;;;;;;10.80;4.45;;;;;;;6.35;98.80;101815.91;4987267;28;20081;-67
2022/11/27 07:20:09;;;;;;;14.45;3.38;;;;;;;6.42;99.22;101809.38;4988921;28;20390;-67
2022/11/27 07:22:35;;;;;;;8.30;4.55;;;;;;;6.38;98.90;101793.13;5002395;28;20030;-67
2022/11/27 07:25:00;;;;;;;7.53;3.83;;;;;;;6.53;99.34;101803.53;4987748;28;20392;-67
2022/11/27 07:27:26;;;;;;;6.65;3.60;;;;;;;6.64;99.17;101793.41;4989696;28;20041;-67
2022/11/27 07:29:51;;;;;;;5.35;3.40;;;;;;;6.75;98.15;101808.16;4990585;28;20229;-67
2022/11/27 07:32:17;;;;;;;8.05;3.92;;;;;;;6.51;97.72;101796.88;4983198;28;20116;-67
2022/11/27 07:34:42;;;;;;;5.40;3.38;;;;;;;6.59;98.99;101801.53;4981319;28;20399;-67
2022/11/27 07:37:08;;;;;;;5.45;2.78;;;;;;;6.77;97.27;101806.78;4989772;28;20487;-68
2022/11/27 07:39:33;;;;;;;7.15;3.80;;;;;;;6.50;98.01;101811.38;4984063;28;20049;-68
2022/11/27 07:41:59;;;;;;;12.82;5.30;;;;;;;6.35;98.83;101801.75;4976835;28;20391;-67
2022/11/27 07:44:24;;;;;;;11.48;5.57;;;;;;;6.47;98.19;101804.72;4975984;28;20035;-67
2022/11/27 07:46:49;;;;;;;10.18;3.33;;;;;;;6.34;99.31;101797.50;4975815;28;20387;-67
2022/11/27 07:49:15;;;;;;;5.78;3.17;;;;;;;6.55;98.01;101785.28;4988387;28;20411;-67
2022/11/27 07:51:40;;;;;;;7.57;3.47;;;;;;;6.42;99.24;101794.13;4986746;28;20039;-68
2022/11/27 07:54:06;;;;;;;9.07;3.22;;;;;;;6.32;100.00;101799.69;4975152;28;20054;-68
2022/11/27 07:56:31;;;;;;;8.90;4.20;;;;;;;6.30;100.00;101791.16;4989300;28;20046;-67
2022/11/27 07:58:57;;;;;;;11.02;3.72;;;;;;;6.30;100.00;101788.47;4974422;28;20073;-67
2022/11/27 08:01:23;;;;;;;8.55;3.92;;;;;;;6.54;100.00;101805.13;4972393;28;20027;-67
2022/11/27 08:03:48;;;;;;;5.53;3.13;;;;;;;6.50;98.72;101790.75;4988870;28;20039;-67
2022/11/27 08:06:22;;;;;;;7.22;3.40;;;;;;;6.56;98.55;101784.22;4985819;28;20042;-67
2022/11/27 08:08:50;;;;;;;9.15;4.38;;;;;;;6.37;99.68;101778.97;5000104;28;20049;-67
2022/11/27 08:11:16;;;;;;;5.80;3.60;;;;;;;6.46;99.49;101784.41;4965920;28;20505;-67
2022/11/27 08:13:42;;;;;;;6.15;3.55;;;;;;;6.42;100.00;101777.28;4990217;28;20049;-67
2022/11/27 08:16:08;;;;;;;5.28;3.17;;;;;;;6.53;99.74;101763.38;4990107;28;20022;-67
2022/11/27 08:18:33;;;;;;;4.03;2.40;;;;;;;6.59;99.06;101772.91;4989621;28;20042;-67
2022/11/27 08:20:59;;;;;;;5.38;3.40;;;;;;;6.49;99.71;101767.75;5001340;28;20030;-67
2022/11/27 08:23:24;;;;;;;6.65;4.40;;;;;;;6.41;100.00;101765.00;4979668;28;20402;-68
2022/11/27 08:25:50;;;;;;;7.35;3.25;;;;;;;6.65;98.75;101755.66;4988814;28;20023;-67
2022/11/27 08:28:15;;;;;;;7.55;3.20;;;;;;;6.74;99.19;101769.88;4987026;28;20030;-67
2022/11/27 08:30:41;;;;;;;6.80;3.75;;;;;;;6.66;99.07;101767.91;4988679;28;20045;-68
2022/11/27 08:33:06;;;;;;;6.78;3.47;;;;;;;6.69;98.75;101771.88;4990151;28;20461;-67
2022/11/27 08:35:32;;;;;;;5.78;3.13;;;;;;;6.83;98.18;101751.25;4989909;28;20117;-67
2022/11/27 08:37:58;;;;;;;11.70;3.70;;;;;;;6.86;98.43;101762.13;4989942;28;20045;-68
2022/11/27 08:40:23;;;;;;;10.70;4.13;;;;;;;6.81;99.24;101756.09;4987860;28;20028;-67
2022/11/27 08:42:48;;;;;;;5.03;3.00;;;;;;;6.79;99.15;101761.78;4985508;28;20035;-67
2022/11/27 08:45:14;;;;;;;6.80;2.85;;;;;;;6.87;99.15;101755.66;4989141;28;20089;-67
2022/11/27 08:47:41;;;;;;;6.03;3.55;;;;;;;6.92;99.58;101754.78;4988995;28;20448;-68
2022/11/27 08:50:07;;;;;;;7.10;4.03;;;;;;;7.25;99.59;101759.63;4984897;28;20165;-68
2022/11/27 08:52:32;;;;;;;6.90;3.55;;;;;;;7.42;97.87;101755.44;4984691;28;20034;-68
2022/11/27 08:54:58;;;;;;;8.43;4.00;;;;;;;7.44;97.80;101761.28;4988708;28;20043;-67
2022/11/27 08:57:26;;;;;;;5.40;3.20;;;;;;;7.67;96.71;101754.81;4988605;28;20026;-67
2022/11/27 08:59:51;;;;;;;4.95;3.28;;;;;;;7.64;96.04;101756.22;5000918;28;20070;-68
2022/11/27 09:02:16;;;;;;;16.88;4.32;;;;;;;7.38;96.46;101736.50;5000369;28;20490;-67
2022/11/27 09:04:42;;;;;;;12.40;4.72;;;;;;;7.39;96.21;101734.63;4993369;28;20042;-67
2022/11/27 09:07:09;;;;;;;5.05;2.97;;;;;;;7.49;96.09;101731.69;4991012;28;20069;-68
2022/11/27 09:09:35;;;;;;;11.63;3.45;;;;;;;7.45;96.63;101731.53;5006775;28;20446;-67
2022/11/27 09:12:01;;;;;;;8.73;4.22;;;;;;;7.42;96.92;101725.97;4983751;28;20053;-67
2022/11/27 09:14:26;;;;;;;7.20;3.65;;;;;;;7.37;96.26;101718.06;4992353;28;20110;-67
2022/11/27 09:16:52;;;;;;;10.60;3.13;;;;;;;7.37;97.15;101715.41;4991807;28;20041;-67
2022/11/27 09:19:18;;;;;;;6.47;3.38;;;;;;;7.54;96.77;101718.16;5004859;28;20503;-67
2022/11/27 09:21:43;;;;;;;5.15;3.00;;;;;;;7.55;95.92;101712.50;4990522;28;20066;-67
2022/11/27 09:24:09;;;;;;;13.45;3.45;;;;;;;7.12;96.76;101722.94;4989729;28;20402;-67
2022/11/27 09:26:34;;;;;;;11.93;3.13;;;;;;;7.06;98.48;101713.47;4984103;28;20045;-67
2022/11/27 09:29:00;;;;;;;13.07;4.00;;;;;;;7.23;97.56;101708.22;4989478;28;20034;-67
2022/11/27 09:31:26;;;;;;;7.88;3.47;;;;;;;7.23;97.25;101705.56;4988038;28;20036;-67
2022/11/27 09:33:51;;;;;;;8.63;3.75;;;;;;;7.55;97.08;101719.75;4990033;28;20038;-67
2022/11/27 09:36:20;;;;;;;7.28;3.20;;;;;;;7.49;97.27;101718.31;4987058;28;20386;-67
2022/11/27 09:38:46;;;;;;;5.65;3.80;;;;;;;7.54;95.83;101729.69;4984798;28;20049;-67
2022/11/27 09:41:35;;;;;;;8.75;3.75;;;;;;;7.58;95.98;101741.38;4976199;28;20034;-67
2022/11/27 09:44:30;;;;;;;6.57;3.20;;;;;;;7.68;96.15;101722.34;4994117;28;20265;-67
2022/11/27 09:47:00;;;;;;;4.30;3.10;;;;;;;7.90;95.23;101721.47;4981382;28;20034;-67
2022/11/27 09:49:33;;;;;;;9.23;3.67;;;;;;;7.65;94.46;101708.75;4977953;28;20062;-67
2022/11/27 09:52:05;;;;;;;4.53;2.90;;;;;;;7.40;95.01;101696.00;5004629;28;20039;-68
2022/11/27 09:54:40;;;;;;;8.05;3.70;;;;;;;7.43;96.89;101695.41;4992566;28;20121;-67
2022/11/27 09:57:13;;;;;;;5.70;3.17;;;;;;;7.80;95.75;101686.91;4989757;28;20027;-67
2022/11/27 09:59:44;;;;;;;8.32;3.40;;;;;;;8.03;95.16;101677.69;4984176;28;20042;-67
2022/11/27 10:02:27;;;;;;;8.50;3.92;;;;;;;8.08;94.27;101688.25;4985066;28;20045;-67
2022/11/27 10:04:53;;;;;;;6.90;3.42;;;;;;;8.09;92.86;101687.16;4990361;28;20074;-67
2022/11/27 10:07:38;;;;;;;5.82;3.58;;;;;;;8.25;93.43;101679.47;4990328;28;20502;-67
2022/11/27 10:10:30;;;;;;;13.43;3.50;;;;;;;8.28;93.88;101674.28;4985724;28;20049;-67
2022/11/27 10:13:10;;;;;;;10.05;4.65;;;;;;;8.30;92.93;101665.91;4973999;28;20046;-67
2022/11/27 10:16:00;;;;;;;10.93;3.95;;;;;;;8.12;93.49;101660.50;4975964;28;20048;-67
2022/11/27 10:18:28;;;;;;;4.85;3.28;;;;;;;8.25;92.38;101650.75;4990300;28;20042;-67
2022/11/27 10:21:05;;;;;;;8.02;3.70;;;;;;;8.40;91.87;101654.88;4994447;28;20480;-67
2022/11/27 10:23:52;;;;;;;9.63;4.05;;;;;;;8.12;92.65;101648.97;4985985;28;20038;-67
2022/11/27 10:26:25;;;;;;;6.80;3.90;;;;;;;8.12;92.62;101651.66;5001257;28;20045;-67
2022/11/27 10:29:08;;;;;;;6.45;3.15;;;;;;;7.94;93.39;101650.03;4983058;28;20041;-67
2022/11/27 10:31:50;;;;;;;4.03;3.25;;;;;;;8.16;93.80;101658.78;4985438;28;20041;-67
2022/11/27 10:34:48;;;;;;;8.90;4.43;;;;;;;8.23;93.26;101673.63;4982716;28;20057;-67
2022/11/27 10:37:32;;;;;;;10.32;3.38;;;;;;;8.04;92.42;101676.56;4970682;28;20133;-67
2022/11/27 10:40:05;;;;;;;9.57;3.65;;;;;;;8.00;93.30;101678.28;4977789;28;20848;-67
2022/11/27 10:42:40;;;;;;;7.40;3.22;;;;;;;8.08;93.35;101670.28;4997169;28;20026;-67
2022/11/27 10:45:19;;;;;;;5.47;2.80;;;;;;;7.84;94.35;101666.44;5003053;28;20980;-68
2022/11/27 10:47:47;;;;;;;5.72;2.72;;;;;;;7.93;94.42;101651.94;4998939;28;20459;-67
2022/11/27 10:50:15;;;;;;;5.88;3.10;;;;;;;8.01;94.29;101658.44;4987130;28;20043;-67
2022/11/27 10:52:53;;;;;;;7.88;4.07;;;;;;;8.01;94.03;101661.88;4981733;28;20117;-67
2022/11/27 10:55:33;;;;;;;7.63;3.65;;;;;;;8.15;93.78;101661.75;4979826;28;20049;-67
2022/11/27 10:58:15;;;;;;;13.10;3.30;;;;;;;8.00;93.41;101656.81;4975883;28;20050;-67
2022/11/27 11:00:40;;;;;;;8.32;3.47;;;;;;;8.20;93.50;101653.56;4996697;28;20034;-67
2022/11/27 11:03:06;;;;;;;8.63;3.55;;;;;;;8.15;93.36;101648.31;4981563;28;20022;-67
2022/11/27 11:05:33;;;;;;;9.18;3.85;;;;;;;8.06;93.23;101652.91;4985272;28;20042;-68
2022/11/27 11:08:03;;;;;;;8.48;4.47;;;;;;;7.90;94.17;101652.53;4993702;28;20030;-67
2022/11/27 11:10:51;;;;;;;8.02;3.90;;;;;;;7.84;94.83;101650.34;5001580;28;20554;-67
2022/11/27 11:13:20;;;;;;;5.55;2.88;;;;;;;7.87;93.82;101655.06;4982635;28;20057;-68
2022/11/27 11:15:50;;;;;;;9.88;3.72;;;;;;;8.04;93.63;101650.53;4994541;28;20022;-68
2022/11/27 11:18:28;;;;;;;4.05;3.17;;;;;;;8.05;94.06;101643.28;4985135;28;20046;-68
2022/11/27 11:20:56;;;;;;;7.30;3.90;;;;;;;8.12;94.04;101646.28;4985946;28;20038;-68
2022/11/27 11:23:29;;;;;;;6.10;2.95;;;;;;;8.27;93.67;101648.53;4985253;28;20030;-68
2022/11/27 11:25:58;;;;;;;6.78;3.47;;;;;;;8.49;93.23;101643.03;4986507;28;20049;-67
2022/11/27 11:28:25;;;;;;;7.55;2.70;;;;;;;8.53;92.05;101638.63;4987257;28;20073;-67
2022/11/27 11:31:03;;;;;;;7.30;3.67;;;;;;;8.52;91.38;101646.97;4999482;28;20026;-67
2022/11/27 11:33:30;;;;;;;5.25;3.17;;;;;;;8.58;91.54;101632.28;4989122;28;20030;-67
2022/11/27 11:36:05;;;;;;;6.30;2.95;;;;;;;8.56;91.84;101635.28;4983110;28;20104;-67
2022/11/27 11:38:31;;;;;;;7.25;3.80;;;;;;;8.67;91.81;101625.03;4967290;28;20050;-67